sensor_id;sensor_type;location;lat;lon;timestamp;pressure;altitude;pressure_sealevel;temperature;humidity
14767;BME280;7475;53.558;9.970;2022-12-10T00:01:43;100928.06;;;1.42;100.00
14767;BME280;7475;53.558;9.970;2022-12-10T00:04:10;100934.19;;;1.43;100.00
14767;BME280;7475;53.558;9.970;2022-12-10T00:06:37;100934.25;;;1.40;100.00
14767;BME280;7475;53.558;9.970;2022-12-10T00:09:05;100931.69;;;1.38;100.00
14767;BME280;7475;53.558;9.970;2022-12-10T00:11:31;100927.41;;;1.34;100.00
14767;BME280;7475;53.558;9.970;2022-12-10T00:13:57;100938.81;;;1.32;100.00
14767;BME280;7475;53.558;9.970;2022-12-10T00:16:25;100941.44;;;1.32;100.00
14767;BME280;7475;53.558;9.970;2022-12-10T00:18:50;100941.31;;;1.35;100.00
14767;BME280;7475;53.558;9.970;2022-12-10T00:21:19;100944.88;;;1.34;100.00
14767;BME280;7475;53.558;9.970;2022-12-10T00:23:45;100941.44;;;1.32;100.00
14767;BME280;7475;53.558;9.970;2022-12-10T00:26:12;100944.94;;;1.31;100.00
14767;BME280;7475;53.558;9.970;2022-12-10T00:28:38;100942.28;;;1.32;100.00
14767;BME280;7475;53.558;9.970;2022-12-10T00:31:16;100946.66;;;1.32;100.00
14767;BME280;7475;53.558;9.970;2022-12-10T00:33:43;100950.16;;;1.31;100.00
14767;BME280;7475;53.558;9.970;2022-12-10T00:36:14;100941.63;;;1.22;100.00
14767;BME280;7475;53.558;9.970;2022-12-10T00:38:40;100943.41;;;1.20;100.00
14767;BME280;7475;53.558;9.970;2022-12-10T00:41:06;100933.19;;;1.11;100.00
14767;BME280;7475;53.558;9.970;2022-12-10T00:43:31;100942.91;;;1.04;100.00
14767;BME280;7475;53.558;9.970;2022-12-10T00:45:57;100940.41;;;1.00;100.00
14767;BME280;7475;53.558;9.970;2022-12-10T00:48:22;100947.41;;;0.98;100.00
14767;BME280;7475;53.558;9.970;2022-12-10T00:51:12;100945.69;;;0.97;100.00
14767;BME280;7475;53.558;9.970;2022-12-10T00:53:39;100940.53;;;0.94;100.00
14767;BME280;7475;53.558;9.970;2022-12-10T00:56:05;100943.13;;;0.95;100.00
14767;BME280;7475;53.558;9.970;2022-12-10T00:58:32;100953.56;;;0.95;100.00
14767;BME280;7475;53.558;9.970;2022-12-10T01:01:19;100951.03;;;0.92;100.00
14767;BME280;7475;53.558;9.970;2022-12-10T01:03:46;100951.91;;;0.91;100.00
14767;BME280;7475;53.558;9.970;2022-12-10T01:06:18;100958.09;;;0.88;100.00
14767;BME280;7475;53.558;9.970;2022-12-10T01:08:45;100953.72;;;0.87;100.00
14767;BME280;7475;53.558;9.970;2022-12-10T01:11:12;100955.47;;;0.88;100.00
14767;BME280;7475;53.558;9.970;2022-12-10T01:13:38;100966.81;;;0.87;100.00
14767;BME280;7475;53.558;9.970;2022-12-10T01:16:06;100960.66;;;0.90;100.00
14767;BME280;7475;53.558;9.970;2022-12-10T01:18:32;100959.66;;;0.96;100.00
14767;BME280;7475;53.558;9.970;2022-12-10T01:21:18;100960.44;;;0.99;100.00
14767;BME280;7475;53.558;9.970;2022-12-10T01:23:45;100961.38;;;0.97;100.00
14767;BME280;7475;53.558;9.970;2022-12-10T01:26:17;100959.66;;;0.96;100.00
14767;BME280;7475;53.558;9.970;2022-12-10T01:28:43;100966.63;;;0.97;100.00
14767;BME280;7475;53.558;9.970;2022-12-10T01:31:14;100964.88;;;0.96;100.00
14767;BME280;7475;53.558;9.970;2022-12-10T01:33:41;100963.16;;;0.95;100.00
14767;BME280;7475;53.558;9.970;2022-12-10T01:36:20;100961.38;;;0.97;100.00
14767;BME280;7475;53.558;9.970;2022-12-10T01:38:47;100966.56;;;1.00;100.00
14767;BME280;7475;53.558;9.970;2022-12-10T01:41:16;100964.75;;;1.02;100.00
14767;BME280;7475;53.558;9.970;2022-12-10T01:46:35;100970.06;;;0.99;100.00
14767;BME280;7475;53.558;9.970;2022-12-10T01:49:03;100973.56;;;0.98;100.00
14767;BME280;7475;53.558;9.970;2022-12-10T01:51:31;100970.06;;;0.99;100.00
14767;BME280;7475;53.558;9.970;2022-12-10T01:53:57;100976.09;;;1.01;100.00
14767;BME280;7475;53.558;9.970;2022-12-10T01:56:23;100979.59;;;1.01;100.00
14767;BME280;7475;53.558;9.970;2022-12-10T01:58:50;100968.19;;;1.04;100.00
14767;BME280;7475;53.558;9.970;2022-12-10T02:01:23;100973.38;;;1.07;100.00
14767;BME280;7475;53.558;9.970;2022-12-10T02:09:35;100976.66;;;1.15;100.00
14767;BME280;7475;53.558;9.970;2022-12-10T02:15:17;100987.91;;;1.19;100.00
14767;BME280;7475;53.558;9.970;2022-12-10T02:17:48;100982.69;;;1.19;100.00
14767;BME280;7475;53.558;9.970;2022-12-10T02:20:24;100986.06;;;1.25;100.00
14767;BME280;7475;53.558;9.970;2022-12-10T02:23:04;100986.88;;;1.27;100.00
14767;BME280;7475;53.558;9.970;2022-12-10T02:25:48;100979.91;;;1.26;100.00
14767;BME280;7475;53.558;9.970;2022-12-10T02:28:27;100986.88;;;1.27;100.00
14767;BME280;7475;53.558;9.970;2022-12-10T02:30:56;100986.09;;;1.24;100.00
14767;BME280;7475;53.558;9.970;2022-12-10T02:33:24;100981.63;;;1.27;100.00
14767;BME280;7475;53.558;9.970;2022-12-10T02:35:51;100983.31;;;1.32;100.00
14767;BME280;7475;53.558;9.970;2022-12-10T02:38:32;100981.56;;;1.31;100.00
14767;BME280;7475;53.558;9.970;2022-12-10T02:41:01;100986.88;;;1.27;100.00
14767;BME280;7475;53.558;9.970;2022-12-10T02:43:29;100988.66;;;1.25;100.00
14767;BME280;7475;53.558;9.970;2022-12-10T02:45:56;100990.38;;;1.26;100.00
14767;BME280;7475;53.558;9.970;2022-12-10T02:48:23;100992.03;;;1.31;100.00
14767;BME280;7475;53.558;9.970;2022-12-10T02:50:49;100991.03;;;1.36;100.00
14767;BME280;7475;53.558;9.970;2022-12-10T02:53:14;100993.53;;;1.41;100.00
14767;BME280;7475;53.558;9.970;2022-12-10T02:55:57;100989.97;;;1.45;100.00
14767;BME280;7475;53.558;9.970;2022-12-10T02:58:39;100988.44;;;1.35;100.00
14767;BME280;7475;53.558;9.970;2022-12-10T03:03:59;100995.66;;;1.23;100.00
14767;BME280;7475;53.558;9.970;2022-12-10T03:06:39;100990.44;;;1.23;100.00
14767;BME280;7475;53.558;9.970;2022-12-10T03:09:09;100990.31;;;1.30;100.00
14767;BME280;7475;53.558;9.970;2022-12-10T03:11:37;100986.72;;;1.34;100.00
14767;BME280;7475;53.558;9.970;2022-12-10T03:14:15;100987.59;;;1.34;100.00
14767;BME280;7475;53.558;9.970;2022-12-10T03:16:44;100995.41;;;1.36;100.00
14767;BME280;7475;53.558;9.970;2022-12-10T03:19:14;100991.19;;;1.30;100.00
14767;BME280;7475;53.558;9.970;2022-12-10T03:21:41;100995.59;;;1.26;100.00
14767;BME280;7475;53.558;9.970;2022-12-10T03:24:08;100990.44;;;1.23;100.00
14767;BME280;7475;53.558;9.970;2022-12-10T03:26:34;100990.44;;;1.23;100.00
14767;BME280;7475;53.558;9.970;2022-12-10T03:29:16;100996.50;;;1.27;100.00
14767;BME280;7475;53.558;9.970;2022-12-10T03:31:42;100987.00;;;1.21;100.00
14767;BME280;7475;53.558;9.970;2022-12-10T03:34:10;100997.47;;;1.21;100.00
14767;BME280;7475;53.558;9.970;2022-12-10T03:36:36;100986.34;;;1.12;100.00
14767;BME280;7475;53.558;9.970;2022-12-10T03:39:02;100986.47;;;1.05;100.00
14767;BME280;7475;53.558;9.970;2022-12-10T03:41:27;100992.66;;;1.03;100.00
14767;BME280;7475;53.558;9.970;2022-12-10T03:43:58;100991.75;;;1.02;100.00
14767;BME280;7475;53.558;9.970;2022-12-10T03:46:25;100995.25;;;1.03;100.00
14767;BME280;7475;53.558;9.970;2022-12-10T03:48:51;100996.16;;;1.02;100.00
14767;BME280;7475;53.558;9.970;2022-12-10T03:51:17;100999.63;;;1.02;100.00
14767;BME280;7475;53.558;9.970;2022-12-10T03:53:43;100994.41;;;1.01;100.00
14767;BME280;7475;53.558;9.970;2022-12-10T03:56:08;100995.25;;;1.03;100.00
14767;BME280;7475;53.558;9.970;2022-12-10T03:58:33;100997.78;;;1.06;100.00
14767;BME280;7475;53.558;9.970;2022-12-10T04:00:59;100990.75;;;1.09;100.00
14767;BME280;7475;53.558;9.970;2022-12-10T04:03:30;100987.16;;;1.14;100.00
14767;BME280;7475;53.558;9.970;2022-12-10T04:06:04;100994.09;;;1.16;100.00
14767;BME280;7475;53.558;9.970;2022-12-10T04:08:29;100988.81;;;1.19;100.00
14767;BME280;7475;53.558;9.970;2022-12-10T04:10:55;100994.81;;;1.23;100.00
14767;BME280;7475;53.558;9.970;2022-12-10T04:13:20;100988.66;;;1.25;100.00
14767;BME280;7475;53.558;9.970;2022-12-10T04:16:04;100992.03;;;1.31;100.00
14767;BME280;7475;53.558;9.970;2022-12-10T04:18:48;100989.34;;;1.34;100.00
14767;BME280;7475;53.558;9.970;2022-12-10T04:21:13;100991.84;;;1.40;100.00
14767;BME280;7475;53.558;9.970;2022-12-10T04:23:57;100986.56;;;1.41;100.00
14767;BME280;7475;53.558;9.970;2022-12-10T04:26:41;100989.97;;;1.45;100.00
14767;BME280;7475;53.558;9.970;2022-12-10T04:29:20;100990.84;;;1.44;100.00
14767;BME280;7475;53.558;9.970;2022-12-10T04:31:45;100981.28;;;1.43;100.00
14767;BME280;7475;53.558;9.970;2022-12-10T04:34:11;100983.00;;;1.44;100.00
14767;BME280;7475;53.558;9.970;2022-12-10T04:36:36;100978.66;;;1.44;100.00
14767;BME280;7475;53.558;9.970;2022-12-10T04:39:02;100983.00;;;1.44;100.00
14767;BME280;7475;53.558;9.970;2022-12-10T04:41:28;100985.66;;;1.42;100.00
14767;BME280;7475;53.558;9.970;2022-12-10T04:43:53;100987.47;;;1.39;100.00
14767;BME280;7475;53.558;9.970;2022-12-10T04:46:18;100984.03;;;1.38;100.00
14767;BME280;7475;53.558;9.970;2022-12-10T04:48:43;100979.63;;;1.39;100.00
14767;BME280;7475;53.558;9.970;2022-12-10T04:51:09;100986.59;;;1.40;100.00
14767;BME280;7475;53.558;9.970;2022-12-10T04:53:34;100986.53;;;1.43;100.00
14767;BME280;7475;53.558;9.970;2022-12-10T04:55:59;100990.03;;;1.42;100.00
14767;BME280;7475;53.558;9.970;2022-12-10T04:58:26;100983.06;;;1.41;100.00
14767;BME280;7475;53.558;9.970;2022-12-10T05:01:01;100989.16;;;1.43;100.00
14767;BME280;7475;53.558;9.970;2022-12-10T05:03:26;100988.16;;;1.47;100.00
14767;BME280;7475;53.558;9.970;2022-12-10T05:05:51;100988.03;;;1.53;100.00
14767;BME280;7475;53.558;9.970;2022-12-10T05:08:17;100991.38;;;1.58;100.00
14767;BME280;7475;53.558;9.970;2022-12-10T05:10:42;100997.44;;;1.60;100.00
14767;BME280;7475;53.558;9.970;2022-12-10T05:13:07;100993.06;;;1.62;100.00
14767;BME280;7475;53.558;9.970;2022-12-10T05:15:33;100993.06;;;1.62;100.00
14767;BME280;7475;53.558;9.970;2022-12-10T05:18:02;100992.97;;;1.66;100.00
14767;BME280;7475;53.558;9.970;2022-12-10T05:20:27;100984.28;;;1.63;100.00
14767;BME280;7475;53.558;9.970;2022-12-10T05:22:53;100984.28;;;1.63;100.00
14767;BME280;7475;53.558;9.970;2022-12-10T05:25:36;100986.09;;;1.61;100.00
14767;BME280;7475;53.558;9.970;2022-12-10T05:28:20;100991.34;;;1.60;100.00
14767;BME280;7475;53.558;9.970;2022-12-10T05:30:46;100997.56;;;1.56;100.00
14767;BME280;7475;53.558;9.970;2022-12-10T05:33:11;100988.84;;;1.55;100.00
14767;BME280;7475;53.558;9.970;2022-12-10T05:35:37;100994.94;;;1.57;100.00
14767;BME280;7475;53.558;9.970;2022-12-10T05:38:02;100989.59;;;1.60;100.00
14767;BME280;7475;53.558;9.970;2022-12-10T05:40:27;100991.25;;;1.64;100.00
14767;BME280;7475;53.558;9.970;2022-12-10T05:42:53;100991.19;;;1.68;100.00
14767;BME280;7475;53.558;9.970;2022-12-10T05:45:18;100998.16;;;1.69;100.00
14767;BME280;7475;53.558;9.970;2022-12-10T05:47:43;100987.81;;;1.62;100.00
14767;BME280;7475;53.558;9.970;2022-12-10T05:50:09;100994.94;;;1.57;100.00
14767;BME280;7475;53.558;9.970;2022-12-10T05:52:34;100989.81;;;1.51;100.00
14767;BME280;7475;53.558;9.970;2022-12-10T05:54:59;100988.22;;;1.44;100.00
14767;BME280;7475;53.558;9.970;2022-12-10T05:57:24;100989.97;;;1.45;100.00
14767;BME280;7475;53.558;9.970;2022-12-10T05:59:50;100988.22;;;1.44;100.00
14767;BME280;7475;53.558;9.970;2022-12-10T06:02:15;100993.34;;;1.50;100.00
14767;BME280;7475;53.558;9.970;2022-12-10T06:04:40;100996.75;;;1.52;100.00
14767;BME280;7475;53.558;9.970;2022-12-10T06:07:06;101002.00;;;1.52;100.00
14767;BME280;7475;53.558;9.970;2022-12-10T06:09:31;100996.75;;;1.52;100.00
14767;BME280;7475;53.558;9.970;2022-12-10T06:11:56;101000.31;;;1.51;100.00
14767;BME280;7475;53.558;9.970;2022-12-10T06:14:22;101005.53;;;1.51;100.00
14767;BME280;7475;53.558;9.970;2022-12-10T06:16:47;101005.59;;;1.48;100.00
14767;BME280;7475;53.558;9.970;2022-12-10T06:19:12;101007.47;;;1.43;100.00
14767;BME280;7475;53.558;9.970;2022-12-10T06:21:38;101012.72;;;1.43;100.00
14767;BME280;7475;53.558;9.970;2022-12-10T06:24:03;101013.63;;;1.40;100.00
14767;BME280;7475;53.558;9.970;2022-12-10T06:29:00;101016.34;;;1.36;100.00
14767;BME280;7475;53.558;9.970;2022-12-10T06:31:25;101016.34;;;1.36;100.00
14767;BME280;7475;53.558;9.970;2022-12-10T06:33:51;101018.84;;;1.40;100.00
14767;BME280;7475;53.558;9.970;2022-12-10T06:36:18;101014.47;;;1.41;100.00
14767;BME280;7475;53.558;9.970;2022-12-10T06:38:44;101020.53;;;1.44;100.00
14767;BME280;7475;53.558;9.970;2022-12-10T06:41:11;101016.22;;;1.42;100.00
14767;BME280;7475;53.558;9.970;2022-12-10T06:43:37;101013.59;;;1.42;100.00
14767;BME280;7475;53.558;9.970;2022-12-10T06:46:06;101017.06;;;1.42;100.00
14767;BME280;7475;53.558;9.970;2022-12-10T06:48:32;101017.13;;;1.39;100.00
14767;BME280;7475;53.558;9.970;2022-12-10T06:50:58;101018.13;;;1.34;100.00
14767;BME280;7475;53.558;9.970;2022-12-10T06:53:23;101021.69;;;1.30;100.00
14767;BME280;7475;53.558;9.970;2022-12-10T06:55:48;101022.66;;;1.27;100.00
14767;BME280;7475;53.558;9.970;2022-12-10T06:58:14;101023.50;;;1.27;100.00
14767;BME280;7475;53.558;9.970;2022-12-10T07:00:39;101022.63;;;1.29;100.00
14767;BME280;7475;53.558;9.970;2022-12-10T07:03:04;101032.16;;;1.30;100.00
14767;BME280;7475;53.558;9.970;2022-12-10T07:05:29;101026.09;;;1.29;100.00
14767;BME280;7475;53.558;9.970;2022-12-10T07:07:55;101037.41;;;1.30;100.00
14767;BME280;7475;53.558;9.970;2022-12-10T07:10:20;101047.88;;;1.30;100.00
14767;BME280;7475;53.558;9.970;2022-12-10T07:12:46;101051.41;;;1.29;100.00
14767;BME280;7475;53.558;9.970;2022-12-10T07:15:11;101051.34;;;1.32;100.00
14767;BME280;7475;53.558;9.970;2022-12-10T07:17:37;101053.91;;;1.33;100.00
14767;BME280;7475;53.558;9.970;2022-12-10T07:20:02;101055.78;;;1.26;100.00
14767;BME280;7475;53.558;9.970;2022-12-10T07:22:28;101062.06;;;1.19;100.00
14767;BME280;7475;53.558;9.970;2022-12-10T07:24:53;101062.19;;;1.13;100.00
14767;BME280;7475;53.558;9.970;2022-12-10T07:27:18;101058.75;;;1.11;100.00
14767;BME280;7475;53.558;9.970;2022-12-10T07:29:44;101059.59;;;1.12;100.00
14767;BME280;7475;53.558;9.970;2022-12-10T07:32:09;101068.25;;;1.14;100.00
14767;BME280;7475;53.558;9.970;2022-12-10T07:34:34;101069.16;;;1.14;100.00
14767;BME280;7475;53.558;9.970;2022-12-10T07:37:00;101072.75;;;1.07;100.00
14767;BME280;7475;53.558;9.970;2022-12-10T07:39:25;101069.31;;;1.05;100.00
14767;BME280;7475;53.558;9.970;2022-12-10T07:41:51;101071.03;;;1.06;100.00
14767;BME280;7475;53.558;9.970;2022-12-10T07:44:22;101071.03;;;1.06;100.00
14767;BME280;7475;53.558;9.970;2022-12-10T07:46:49;101078.94;;;1.04;100.00
14767;BME280;7475;53.558;9.970;2022-12-10T07:49:15;101081.59;;;1.03;100.00
14767;BME280;7475;53.558;9.970;2022-12-10T07:51:48;101085.13;;;0.99;100.00
14767;BME280;7475;53.558;9.970;2022-12-10T07:54:15;101092.16;;;0.97;100.00
14767;BME280;7475;53.558;9.970;2022-12-10T07:56:40;101086.94;;;0.97;100.00
14767;BME280;7475;53.558;9.970;2022-12-10T07:59:06;101086.94;;;0.97;100.00
14767;BME280;7475;53.558;9.970;2022-12-10T08:01:31;101091.22;;;0.99;100.00
14767;BME280;7475;53.558;9.970;2022-12-10T08:03:56;101091.22;;;0.99;100.00
14767;BME280;7475;53.558;9.970;2022-12-10T08:06:22;101098.97;;;1.04;100.00
14767;BME280;7475;53.558;9.970;2022-12-10T08:08:48;101093.69;;;1.07;100.00
14767;BME280;7475;53.558;9.970;2022-12-10T08:11:15;101090.19;;;1.08;100.00
14767;BME280;7475;53.558;9.970;2022-12-10T08:13:41;101105.84;;;1.11;100.00
14767;BME280;7475;53.558;9.970;2022-12-10T08:16:11;101104.03;;;1.13;100.00
14767;BME280;7475;53.558;9.970;2022-12-10T08:18:37;101102.31;;;1.12;100.00
14767;BME280;7475;53.558;9.970;2022-12-10T08:21:17;101100.59;;;1.11;100.00
14767;BME280;7475;53.558;9.970;2022-12-10T08:23:43;101101.66;;;1.01;100.00
14767;BME280;7475;53.558;9.970;2022-12-10T08:26:18;101106.97;;;0.96;100.00
14767;BME280;7475;53.558;9.970;2022-12-10T08:28:45;101100.88;;;0.96;100.00
14767;BME280;7475;53.558;9.970;2022-12-10T08:31:13;101107.81;;;1.00;100.00
14767;BME280;7475;53.558;9.970;2022-12-10T08:33:39;101102.56;;;1.00;100.00
14767;BME280;7475;53.558;9.970;2022-12-10T08:36:06;101116.47;;;1.02;100.00
14767;BME280;7475;53.558;9.970;2022-12-10T08:38:32;101117.38;;;0.99;100.00
14767;BME280;7475;53.558;9.970;2022-12-10T08:40:58;101123.50;;;1.00;100.00
14767;BME280;7475;53.558;9.970;2022-12-10T08:43:24;101125.13;;;1.04;100.00
14767;BME280;7475;53.558;9.970;2022-12-10T08:45:49;101119.84;;;1.07;100.00
14767;BME280;7475;53.558;9.970;2022-12-10T08:48:15;101125.09;;;1.07;100.00
14767;BME280;7475;53.558;9.970;2022-12-10T08:50:40;101126.88;;;1.05;100.00
14767;BME280;7475;53.558;9.970;2022-12-10T08:53:05;101130.38;;;1.04;100.00
14767;BME280;7475;53.558;9.970;2022-12-10T08:55:31;101126.88;;;1.05;100.00
14767;BME280;7475;53.558;9.970;2022-12-10T08:57:57;101125.19;;;1.01;100.00
14767;BME280;7475;53.558;9.970;2022-12-10T09:00:23;101130.44;;;1.01;100.00
14767;BME280;7475;53.558;9.970;2022-12-10T09:02:49;101130.44;;;1.01;100.00
14767;BME280;7475;53.558;9.970;2022-12-10T09:05:14;101132.16;;;1.02;100.00
14767;BME280;7475;53.558;9.970;2022-12-10T09:07:39;101135.66;;;1.01;100.00
14767;BME280;7475;53.558;9.970;2022-12-10T09:10:05;101142.75;;;0.94;100.00
14767;BME280;7475;53.558;9.970;2022-12-10T09:12:33;101142.78;;;0.93;100.00
14767;BME280;7475;53.558;9.970;2022-12-10T09:14:58;101139.41;;;0.87;100.00
14767;BME280;7475;53.558;9.970;2022-12-10T09:17:24;101149.97;;;0.81;100.00
14767;BME280;7475;53.558;9.970;2022-12-10T09:19:49;101150.06;;;0.75;100.00
14767;BME280;7475;53.558;9.970;2022-12-10T09:22:14;101153.66;;;0.71;100.00
14767;BME280;7475;53.558;9.970;2022-12-10T09:24:39;101160.53;;;0.75;100.00
14767;BME280;7475;53.558;9.970;2022-12-10T09:27:05;101160.44;;;0.81;100.00
14767;BME280;7475;53.558;9.970;2022-12-10T09:29:31;101170.84;;;0.84;100.00
14767;BME280;7475;53.558;9.970;2022-12-10T09:31:56;101169.97;;;0.85;100.00
14767;BME280;7475;53.558;9.970;2022-12-10T09:34:21;101170.78;;;0.87;100.00
14767;BME280;7475;53.558;9.970;2022-12-10T09:36:47;101172.53;;;0.88;100.00
14767;BME280;7475;53.558;9.970;2022-12-10T09:39:13;101177.75;;;0.88;100.00
14767;BME280;7475;53.558;9.970;2022-12-10T09:41:53;101165.56;;;0.87;100.00
14767;BME280;7475;53.558;9.970;2022-12-10T09:46:55;101180.41;;;0.87;100.00
14767;BME280;7475;53.558;9.970;2022-12-10T09:52:12;101170.78;;;0.87;100.00
14767;BME280;7475;53.558;9.970;2022-12-10T09:57:13;101163.72;;;0.93;100.00
14767;BME280;7475;53.558;9.970;2022-12-10T09:59:47;101163.66;;;0.96;100.00
14767;BME280;7475;53.558;9.970;2022-12-10T10:07:37;101158.44;;;0.96;100.00
14767;BME280;7475;53.558;9.970;2022-12-10T10:10:11;101163.66;;;0.96;100.00
14767;BME280;7475;53.558;9.970;2022-12-10T10:12:42;101161.00;;;0.99;100.00
14767;BME280;7475;53.558;9.970;2022-12-10T10:15:16;101158.22;;;1.08;100.00
14767;BME280;7475;53.558;9.970;2022-12-10T10:17:43;101153.88;;;1.05;100.00
14767;BME280;7475;53.558;9.970;2022-12-10T10:20:11;101157.50;;;1.00;100.00
14767;BME280;7475;53.558;9.970;2022-12-10T10:22:38;101146.22;;;0.95;100.00
14767;BME280;7475;53.558;9.970;2022-12-10T10:25:06;101142.91;;;0.86;100.00
14767;BME280;7475;53.558;9.970;2022-12-10T10:27:38;101147.47;;;0.75;100.00
14767;BME280;7475;53.558;9.970;2022-12-10T10:30:06;101146.00;;;0.59;100.00
14767;BME280;7475;53.558;9.970;2022-12-10T10:35:00;101147.88;;;0.52;100.00
14767;BME280;7475;53.558;9.970;2022-12-10T10:37:29;101160.91;;;0.53;100.00
14767;BME280;7475;53.558;9.970;2022-12-10T10:39:56;101164.31;;;0.59;100.00
14767;BME280;7475;53.558;9.970;2022-12-10T10:42:32;101158.03;;;0.67;100.00
14767;BME280;7475;53.558;9.970;2022-12-10T10:44:59;101158.78;;;0.77;100.00
14767;BME280;7475;53.558;9.970;2022-12-10T10:47:32;101158.59;;;0.86;100.00
14767;BME280;7475;53.558;9.970;2022-12-10T10:49:58;101160.31;;;0.87;100.00
14767;BME280;7475;53.558;9.970;2022-12-10T10:52:28;101160.31;;;0.87;100.00
14767;BME280;7475;53.558;9.970;2022-12-10T10:54:55;101165.59;;;0.84;100.00
14767;BME280;7475;53.558;9.970;2022-12-10T10:57:27;101158.66;;;0.83;100.00
14767;BME280;7475;53.558;9.970;2022-12-10T11:00:05;101151.75;;;0.79;100.00
14767;BME280;7475;53.558;9.970;2022-12-10T11:02:41;101153.47;;;0.80;100.00
14767;BME280;7475;53.558;9.970;2022-12-10T11:05:15;101158.78;;;0.77;100.00
14767;BME280;7475;53.558;9.970;2022-12-10T11:07:41;101155.31;;;0.75;100.00
14767;BME280;7475;53.558;9.970;2022-12-10T11:10:22;101160.53;;;0.75;100.00
14767;BME280;7475;53.558;9.970;2022-12-10T11:12:56;101153.56;;;0.77;100.00
14767;BME280;7475;53.558;9.970;2022-12-10T11:17:49;101146.53;;;0.79;100.00
14767;BME280;7475;53.558;9.970;2022-12-10T11:20:19;101156.94;;;0.82;100.00
14767;BME280;7475;53.558;9.970;2022-12-10T11:22:51;101154.25;;;0.87;100.00
14767;BME280;7475;53.558;9.970;2022-12-10T11:25:17;101148.03;;;0.93;100.00
14767;BME280;7475;53.558;9.970;2022-12-10T11:30:17;101135.59;;;1.04;100.00
14767;BME280;7475;53.558;9.970;2022-12-10T11:33:18;101138.97;;;1.09;100.00
14767;BME280;7475;53.558;9.970;2022-12-10T11:44:15;101146.00;;;1.07;100.00
14767;BME280;7475;53.558;9.970;2022-12-10T11:53:53;101142.13;;;1.26;100.00
14767;BME280;7475;53.558;9.970;2022-12-10T12:04:57;101134.81;;;1.44;100.00
14767;BME280;7475;53.558;9.970;2022-12-10T12:15:23;101126.91;;;1.47;100.00
14767;BME280;7475;53.558;9.970;2022-12-10T12:17:57;101136.56;;;1.43;100.00
14767;BME280;7475;53.558;9.970;2022-12-10T12:20:34;101135.69;;;1.44;100.00
14767;BME280;7475;53.558;9.970;2022-12-10T12:23:24;101133.22;;;1.37;100.00
14767;BME280;7475;53.558;9.970;2022-12-10T12:25:55;101133.41;;;1.27;100.00
14767;BME280;7475;53.558;9.970;2022-12-10T12:28:27;101130.03;;;1.22;100.00
14767;BME280;7475;53.558;9.970;2022-12-10T12:31:05;101131.88;;;1.17;100.00
14767;BME280;7475;53.558;9.970;2022-12-10T12:33:43;101133.63;;;1.15;100.00
14767;BME280;7475;53.558;9.970;2022-12-10T12:36:16;101135.38;;;1.16;100.00
14767;BME280;7475;53.558;9.970;2022-12-10T12:38:51;101134.38;;;1.22;100.00
14767;BME280;7475;53.558;9.970;2022-12-10T12:44:12;101140.31;;;1.32;100.00
14767;BME280;7475;53.558;9.970;2022-12-10T12:46:43;101128.09;;;1.32;100.00
14767;BME280;7475;53.558;9.970;2022-12-10T12:49:26;101142.09;;;1.30;100.00
14767;BME280;7475;53.558;9.970;2022-12-10T12:52:05;101133.44;;;1.26;100.00
14767;BME280;7475;53.558;9.970;2022-12-10T12:54:40;101139.53;;;1.26;100.00
14767;BME280;7475;53.558;9.970;2022-12-10T12:57:20;101136.91;;;1.26;100.00
14767;BME280;7475;53.558;9.970;2022-12-10T13:00:23;101142.09;;;1.30;100.00
14767;BME280;7475;53.558;9.970;2022-12-10T13:05:45;101152.50;;;1.33;100.00
14767;BME280;7475;53.558;9.970;2022-12-10T13:13:39;101143.56;;;1.43;100.00
14767;BME280;7475;53.558;9.970;2022-12-10T13:22:09;101155.88;;;1.38;100.00
14767;BME280;7475;53.558;9.970;2022-12-10T13:27:16;101155.00;;;1.39;100.00
14767;BME280;7475;53.558;9.970;2022-12-10T13:32:19;101154.56;;;1.15;100.00
14767;BME280;7475;53.558;9.970;2022-12-10T13:34:45;101162.66;;;1.04;100.00
14767;BME280;7475;53.558;9.970;2022-12-10T13:37:17;101158.53;;;0.89;100.00
14767;BME280;7475;53.558;9.970;2022-12-10T13:39:52;101163.06;;;0.80;100.00
14767;BME280;7475;53.558;9.970;2022-12-10T13:45:04;101167.75;;;0.61;100.00
14767;BME280;7475;53.558;9.970;2022-12-10T13:47:46;101170.34;;;0.62;100.00
14767;BME280;7475;53.558;9.970;2022-12-10T13:53:03;101173.53;;;0.80;100.00
14767;BME280;7475;53.558;9.970;2022-12-10T14:06:25;101183.88;;;0.87;100.00
14767;BME280;7475;53.558;9.970;2022-12-10T14:08:59;101189.88;;;0.93;100.00
14767;BME280;7475;53.558;9.970;2022-12-10T14:11:29;101184.59;;;0.96;100.00
14767;BME280;7475;53.558;9.970;2022-12-10T14:13:57;101182.78;;;0.98;100.00
14767;BME280;7475;53.558;9.970;2022-12-10T14:16:24;101187.97;;;1.01;100.00
14767;BME280;7475;53.558;9.970;2022-12-10T14:19:04;101178.38;;;1.03;100.00
14767;BME280;7475;53.558;9.970;2022-12-10T14:21:33;101184.44;;;1.05;100.00
14767;BME280;7475;53.558;9.970;2022-12-10T14:23:59;101183.50;;;1.07;100.00
14767;BME280;7475;53.558;9.970;2022-12-10T14:26:35;101184.31;;;1.11;100.00
14767;BME280;7475;53.558;9.970;2022-12-10T14:31:44;101184.31;;;1.11;100.00
14767;BME280;7475;53.558;9.970;2022-12-10T14:34:14;101189.56;;;1.11;100.00
14767;BME280;7475;53.558;9.970;2022-12-10T14:36:46;101186.03;;;1.12;100.00
14767;BME280;7475;53.558;9.970;2022-12-10T14:39:25;101188.59;;;1.15;100.00
14767;BME280;7475;53.558;9.970;2022-12-10T14:41:53;101185.06;;;1.18;100.00
14767;BME280;7475;53.558;9.970;2022-12-10T14:44:21;101187.59;;;1.22;100.00
14767;BME280;7475;53.558;9.970;2022-12-10T14:46:47;101189.28;;;1.25;100.00
14767;BME280;7475;53.558;9.970;2022-12-10T14:49:20;101192.72;;;1.29;100.00
14767;BME280;7475;53.558;9.970;2022-12-10T14:51:46;101185.69;;;1.31;100.00
14767;BME280;7475;53.558;9.970;2022-12-10T14:54:33;101194.38;;;1.33;100.00
14767;BME280;7475;53.558;9.970;2022-12-10T14:57:04;101193.47;;;1.34;100.00
14767;BME280;7475;53.558;9.970;2022-12-10T14:59:49;101192.56;;;1.35;100.00
14767;BME280;7475;53.558;9.970;2022-12-10T15:02:29;101200.44;;;1.33;100.00